MUVR/VRA METAR and TAF weather

Enter ICAO airport designator
Station Type Date Time Source
MUVR METAR 2020/03/31 12:50 UTC NOAA

MUVR 311250Z 16004KT 100V210 9000 FEW030 24/21 Q1015


Station Type Date Time Source
MUVR Decoded METAR 2020/03/31 12:50 UTC NOAA

Varadero, Matanzas, Cuba (MUVR) 23-08N 081-17W 3M
Mar 31, 2020 - 08:50 AM EDT / 2020.03.31 1250 UTC
Wind: from the SSE (160 degrees) at 5 MPH (4 KT) (direction variable):0
Visibility: 5 mile(s):0
Sky conditions: mostly clear
Temperature: 75 F (24 C)
Dew Point: 69 F (21 C)
Relative Humidity: 83%
Pressure (altimeter): 29.97 in. Hg (1015 hPa)
ob: MUVR 311250Z 16004KT 100V210 9000 FEW030 24/21 Q1015
cycle: 13

Station Type Date Time Source
MUVR TAF 2020/03/31 12:03 UTC NOAA

TAF MUVR 311100Z 3112/0112 VRB03KT 9000 SCT020

Example: see airport list